createdAt,value
2023-05-17T00:01:48.432Z,69.89
2023-05-17T00:04:15.566Z,69.84
2023-05-17T00:06:43.028Z,69.63
2023-05-17T00:09:10.062Z,69.44
2023-05-17T00:11:36.968Z,69.23
2023-05-17T00:14:03.935Z,69.23
2023-05-17T00:16:30.875Z,69.20
2023-05-17T00:18:57.937Z,69.18
2023-05-17T00:21:24.839Z,68.92
2023-05-17T00:23:51.696Z,68.55
2023-05-17T00:26:18.552Z,68.21
2023-05-17T00:28:45.567Z,68.16
2023-05-17T00:31:14.401Z,68.34
2023-05-17T00:33:41.379Z,68.48
2023-05-17T00:36:08.402Z,68.36
2023-05-17T00:38:35.331Z,68.32
2023-05-17T00:41:02.255Z,68.55
2023-05-17T00:43:29.077Z,68.36
2023-05-17T00:45:55.977Z,68.40
2023-05-17T00:48:25.885Z,68.34
2023-05-17T00:50:53.723Z,68.54
2023-05-17T00:53:20.634Z,68.47
2023-05-17T00:55:47.537Z,68.60
2023-05-17T00:58:14.807Z,68.73
2023-05-17T01:00:41.906Z,68.70
2023-05-17T01:03:08.949Z,68.41
2023-05-17T01:05:36.439Z,68.31
2023-05-17T01:08:03.383Z,68.44
2023-05-17T01:10:54.575Z,68.28
2023-05-17T01:13:30.148Z,68.41
2023-05-17T01:16:02.587Z,68.17
2023-05-17T01:18:40.714Z,68.23
2023-05-17T01:21:22.960Z,68.14
2023-05-17T01:23:56.468Z,68.29
2023-05-17T01:26:39.543Z,68.44
2023-05-17T01:29:06.460Z,68.82
2023-05-17T01:31:33.414Z,68.85
2023-05-17T01:34:01.611Z,68.81
2023-05-17T01:36:28.612Z,68.82
2023-05-17T01:38:55.624Z,68.31
2023-05-17T01:41:39.475Z,68.48
2023-05-17T01:45:44.520Z,68.82
2023-05-17T01:48:17.615Z,69.21
2023-05-17T01:50:44.563Z,69.37
2023-05-17T01:53:16.355Z,69.59
2023-05-17T01:55:50.397Z,70.14
2023-05-17T01:58:18.918Z,70.08
2023-05-17T02:00:46.735Z,69.86
2023-05-17T02:03:17.733Z,69.82
2023-05-17T02:05:44.834Z,69.57
2023-05-17T02:08:12.175Z,69.59
2023-05-17T02:10:39.100Z,69.58
2023-05-17T02:13:06.115Z,69.81
2023-05-17T02:15:33.104Z,69.88
2023-05-17T02:18:00.153Z,69.98
2023-05-17T02:20:27.354Z,70.09
2023-05-17T02:22:55.659Z,70.16
2023-05-17T02:25:22.704Z,70.44
2023-05-17T02:27:49.670Z,70.75
2023-05-17T02:30:18.376Z,71.02
2023-05-17T02:32:45.723Z,71.49
2023-05-17T02:35:14.353Z,71.62
2023-05-17T02:37:41.542Z,71.66
2023-05-17T02:40:10.014Z,71.78
2023-05-17T02:42:37.016Z,72.09
2023-05-17T02:45:04.351Z,72.55
2023-05-17T02:47:31.430Z,72.54
2023-05-17T02:49:58.553Z,72.58
2023-05-17T02:52:25.739Z,72.83
2023-05-17T02:54:55.791Z,72.95
2023-05-17T02:57:22.866Z,73.03
2023-05-17T02:59:50.305Z,73.19
2023-05-17T03:02:17.496Z,73.21
2023-05-17T03:04:47.181Z,72.81
2023-05-17T03:07:14.153Z,72.56
2023-05-17T03:09:43.032Z,72.26
2023-05-17T03:12:10.154Z,72.38
2023-05-17T03:14:37.266Z,72.66
2023-05-17T03:17:04.462Z,72.54
2023-05-17T03:19:33.944Z,72.43
2023-05-17T03:22:02.253Z,72.37
2023-05-17T03:24:31.240Z,72.54
2023-05-17T03:26:58.272Z,72.65
2023-05-17T03:29:25.352Z,72.91
2023-05-17T03:31:52.716Z,72.96
2023-05-17T03:34:19.787Z,73.12
2023-05-17T03:36:46.741Z,73.31
2023-05-17T03:39:13.676Z,73.53
2023-05-17T03:41:42.283Z,73.56
2023-05-17T03:44:09.760Z,73.53
2023-05-17T03:46:37.143Z,73.37
2023-05-17T03:49:04.656Z,73.44
2023-05-17T03:51:32.849Z,73.26
2023-05-17T03:54:01.129Z,73.26
2023-05-17T03:56:29.683Z,73.06
2023-05-17T03:58:56.708Z,72.78
2023-05-17T04:01:23.759Z,72.74
2023-05-17T04:03:50.859Z,72.72
2023-05-17T04:06:19.282Z,72.79
2023-05-17T04:08:46.244Z,72.72
2023-05-17T04:11:14.210Z,72.89
2023-05-17T04:13:41.641Z,72.98
2023-05-17T04:16:09.135Z,72.87
2023-05-17T04:18:37.236Z,72.95
2023-05-17T04:21:04.811Z,72.93
2023-05-17T04:23:32.471Z,72.98
2023-05-17T04:26:00.029Z,73.26
2023-05-17T04:28:28.103Z,73.51
2023-05-17T04:30:56.000Z,73.55
2023-05-17T04:33:24.505Z,73.76
2023-05-17T04:35:52.249Z,73.68
2023-05-17T04:38:19.486Z,73.84
2023-05-17T04:40:46.410Z,73.81
2023-05-17T04:43:13.671Z,73.42
2023-05-17T04:45:41.525Z,73.64
2023-05-17T04:48:09.049Z,73.89
2023-05-17T04:50:36.075Z,73.84
2023-05-17T04:53:04.246Z,73.63
2023-05-17T04:55:35.996Z,73.45
2023-05-17T04:58:03.019Z,73.15
2023-05-17T05:00:30.306Z,73.23
2023-05-17T05:03:00.338Z,72.69
2023-05-17T05:05:27.732Z,72.29
2023-05-17T05:07:55.350Z,72.19
2023-05-17T05:10:22.433Z,72.24
2023-05-17T05:12:49.868Z,72.28
2023-05-17T05:15:16.799Z,71.96
2023-05-17T05:17:48.739Z,71.99
2023-05-17T05:20:15.890Z,71.96
2023-05-17T05:22:43.384Z,72.10
2023-05-17T05:25:10.622Z,72.31
2023-05-17T05:27:37.616Z,72.12
2023-05-17T05:30:04.889Z,72.12
2023-05-17T05:32:32.070Z,72.24
2023-05-17T05:34:59.880Z,71.89
2023-05-17T05:37:26.973Z,72.06
2023-05-17T05:39:53.967Z,72.34
2023-05-17T05:42:20.944Z,72.02
2023-05-17T05:44:48.139Z,71.85
2023-05-17T05:47:15.917Z,71.73
2023-05-17T05:49:42.864Z,72.06
2023-05-17T05:52:10.298Z,72.03
2023-05-17T05:54:37.440Z,71.86
2023-05-17T05:57:04.690Z,71.73
2023-05-17T05:59:31.605Z,71.74
2023-05-17T06:01:58.885Z,71.50
2023-05-17T06:04:36.318Z,71.55
2023-05-17T06:07:11.230Z,71.39
2023-05-17T06:09:38.146Z,70.91
2023-05-17T06:12:05.217Z,70.59
2023-05-17T06:14:32.158Z,70.84
2023-05-17T06:16:59.024Z,70.86
2023-05-17T06:19:26.229Z,71.01
2023-05-17T06:21:53.296Z,70.71
2023-05-17T06:24:20.128Z,70.43
2023-05-17T06:26:49.908Z,70.48
2023-05-17T06:29:16.819Z,70.27
2023-05-17T06:31:43.681Z,69.88
2023-05-17T06:34:10.634Z,69.76
2023-05-17T06:36:38.682Z,69.42
2023-05-17T06:39:05.802Z,68.84
2023-05-17T06:41:32.775Z,68.78
2023-05-17T06:43:59.733Z,68.77
2023-05-17T06:46:27.209Z,68.89
2023-05-17T06:48:54.932Z,68.64
2023-05-17T06:51:21.957Z,68.73
2023-05-17T06:53:48.815Z,68.75
2023-05-17T06:56:22.135Z,68.68
2023-05-17T06:58:49.726Z,68.70
2023-05-17T07:01:17.203Z,68.81
2023-05-17T07:03:46.732Z,68.54
2023-05-17T07:06:13.774Z,68.54
2023-05-17T07:08:41.174Z,68.26
2023-05-17T07:11:08.176Z,68.11
2023-05-17T07:13:35.566Z,68.13
2023-05-17T07:16:02.534Z,68.16
2023-05-17T07:18:29.742Z,68.12
2023-05-17T07:20:56.874Z,67.84
2023-05-17T07:23:23.902Z,67.99
2023-05-17T07:25:52.484Z,67.88
2023-05-17T07:28:19.825Z,67.94
2023-05-17T07:30:47.054Z,68.22
2023-05-17T07:33:15.012Z,68.26
2023-05-17T07:35:41.904Z,68.16
2023-05-17T07:38:10.905Z,68.21
2023-05-17T07:40:40.064Z,68.18
2023-05-17T07:43:07.707Z,67.67
2023-05-17T07:45:34.675Z,67.76
2023-05-17T07:48:01.866Z,67.41
2023-05-17T07:50:29.316Z,67.15
2023-05-17T07:52:56.585Z,67.38
2023-05-17T07:55:23.515Z,66.91
2023-05-17T07:57:50.843Z,67.04
2023-05-17T08:00:19.454Z,67.67
2023-05-17T08:02:52.452Z,67.94
2023-05-17T08:05:19.393Z,67.37
2023-05-17T08:07:46.786Z,67.23
2023-05-17T08:10:13.662Z,67.14
2023-05-17T08:12:40.793Z,67.29
2023-05-17T08:15:08.684Z,66.86
2023-05-17T08:17:36.222Z,66.06
2023-05-17T08:20:05.940Z,65.87
2023-05-17T08:22:32.990Z,65.85
2023-05-17T08:24:59.919Z,65.69
2023-05-17T08:27:27.249Z,65.83
2023-05-17T08:29:55.038Z,65.62
2023-05-17T08:32:23.751Z,65.40
2023-05-17T08:34:50.768Z,65.26
2023-05-17T08:37:18.794Z,65.82
2023-05-17T08:39:51.178Z,65.68
2023-05-17T08:42:21.689Z,66.04
2023-05-17T08:44:49.442Z,65.94
2023-05-17T08:47:26.044Z,65.50
2023-05-17T08:49:55.506Z,65.36
2023-05-17T09:06:36.661Z,62.61
2023-05-17T09:09:03.847Z,62.02
2023-05-17T09:11:32.468Z,62.32
2023-05-17T09:14:01.030Z,62.51
2023-05-17T09:16:30.135Z,62.14
2023-05-17T09:18:57.618Z,62.26
2023-05-17T09:21:27.514Z,61.57
2023-05-17T09:24:05.583Z,60.50
2023-05-17T09:26:42.972Z,60.02
2023-05-17T09:29:14.615Z,60.07
2023-05-17T09:48:37.835Z,54.40
2023-05-17T09:51:05.169Z,53.22
2023-05-17T09:53:37.822Z,52.67
2023-05-17T09:56:05.205Z,51.45
2023-05-17T09:58:33.041Z,51.26
2023-05-17T10:01:01.708Z,50.37
2023-05-17T10:03:37.356Z,50.76
2023-05-17T10:06:11.280Z,50.03
2023-05-17T10:08:44.123Z,50.20
2023-05-17T10:11:12.376Z,50.90
2023-05-17T10:14:17.920Z,50.92
2023-05-17T10:16:45.314Z,50.96
2023-05-17T10:19:13.204Z,50.42
2023-05-17T10:21:40.630Z,50.69
2023-05-17T10:24:07.703Z,49.99
2023-05-17T10:26:35.243Z,50.09
2023-05-17T10:29:02.577Z,49.42
2023-05-17T10:31:36.055Z,49.62
2023-05-17T10:34:04.824Z,49.87
2023-05-17T10:36:31.961Z,50.06
2023-05-17T10:38:58.948Z,49.26
2023-05-17T10:41:31.719Z,49.05
2023-05-17T10:43:58.490Z,48.72
2023-05-17T10:46:29.903Z,48.39
2023-05-17T10:48:58.333Z,48.76
2023-05-17T10:51:37.161Z,48.63
2023-05-17T10:54:11.510Z,48.72
2023-05-17T10:56:42.581Z,48.42
2023-05-17T10:59:26.244Z,48.46
2023-05-17T11:02:03.036Z,47.79
2023-05-17T11:04:43.155Z,47.10
2023-05-17T11:07:21.326Z,46.09
2023-05-17T11:09:53.762Z,45.03
2023-05-17T11:12:33.629Z,43.78
2023-05-17T11:15:08.266Z,42.26
2023-05-17T11:17:46.191Z,42.24
2023-05-17T11:20:17.039Z,42.50
2023-05-17T11:22:58.092Z,42.74
2023-05-17T11:25:29.746Z,42.67
2023-05-17T11:27:56.892Z,42.44
2023-05-17T11:30:28.877Z,42.35
2023-05-17T11:32:59.702Z,42.80
2023-05-17T11:35:28.066Z,42.06
2023-05-17T11:38:15.355Z,41.92
2023-05-17T11:40:42.583Z,42.16
2023-05-17T11:43:11.174Z,42.89
2023-05-17T11:45:56.656Z,41.81
2023-05-17T11:48:25.899Z,41.00
2023-05-17T11:50:54.621Z,41.47
2023-05-17T11:53:21.563Z,41.53
2023-05-17T11:55:52.415Z,41.79
2023-05-17T11:58:20.915Z,40.89
2023-05-17T12:00:52.362Z,40.52
2023-05-17T12:03:23.586Z,40.90
2023-05-17T12:06:00.523Z,40.49
2023-05-17T12:08:28.023Z,40.31
2023-05-17T12:10:56.610Z,39.94
2023-05-17T12:13:23.513Z,38.76
2023-05-17T12:15:56.337Z,38.73
2023-05-17T12:18:24.175Z,37.95
2023-05-17T12:20:57.630Z,37.89
2023-05-17T12:23:29.110Z,38.42
2023-05-17T12:26:09.257Z,38.46
2023-05-17T12:28:38.812Z,38.90
2023-05-17T12:31:08.483Z,38.91
2023-05-17T12:33:36.096Z,39.05
2023-05-17T12:36:03.794Z,39.41
2023-05-17T12:38:32.493Z,38.87
2023-05-17T12:41:03.025Z,37.72
2023-05-17T12:43:32.126Z,37.05
2023-05-17T12:46:03.986Z,36.95
2023-05-17T12:48:30.943Z,36.97
2023-05-17T12:50:57.635Z,36.94
2023-05-17T12:53:25.361Z,36.54
2023-05-17T12:55:56.907Z,36.48
2023-05-17T12:58:23.636Z,36.40
2023-05-17T13:00:57.937Z,37.15
2023-05-17T13:03:25.893Z,36.93
2023-05-17T13:06:05.567Z,36.37
2023-05-17T13:08:32.881Z,36.22
2023-05-17T13:11:09.758Z,36.21
2023-05-17T13:13:36.868Z,35.13
2023-05-17T13:16:03.822Z,34.99
2023-05-17T13:18:34.944Z,34.60
2023-05-17T13:21:02.312Z,35.08
2023-05-17T13:23:29.356Z,34.86
2023-05-17T13:25:56.278Z,34.27
2023-05-17T13:28:24.217Z,33.95
2023-05-17T13:30:51.985Z,33.67
2023-05-17T13:33:19.820Z,33.72
2023-05-17T13:35:46.748Z,33.31
2023-05-17T13:38:13.511Z,33.23
2023-05-17T13:40:40.436Z,33.31
2023-05-17T13:43:09.823Z,33.70
2023-05-17T13:45:36.900Z,33.87
2023-05-17T13:48:03.866Z,33.81
2023-05-17T13:50:31.159Z,34.00
2023-05-17T13:52:58.161Z,33.80
2023-05-17T13:55:24.987Z,33.75
2023-05-17T13:57:52.251Z,34.04
2023-05-17T14:02:54.802Z,35.11
2023-05-17T14:05:22.138Z,34.59
2023-05-17T14:07:49.128Z,34.64
2023-05-17T14:10:16.118Z,34.69
2023-05-17T14:12:43.848Z,34.83
2023-05-17T14:15:10.997Z,34.91
2023-05-17T14:17:38.058Z,34.92
2023-05-17T14:27:44.116Z,34.93
2023-05-17T14:30:13.610Z,34.61
2023-05-17T14:32:41.342Z,34.26
2023-05-17T14:35:08.662Z,34.09
2023-05-17T14:37:35.741Z,34.07
2023-05-17T14:40:06.596Z,34.45
2023-05-17T14:42:34.242Z,33.62
2023-05-17T14:45:01.369Z,33.58
2023-05-17T14:47:28.375Z,34.01
2023-05-17T14:49:55.348Z,34.18
2023-05-17T14:52:22.734Z,34.41
2023-05-17T14:54:52.169Z,34.63
2023-05-17T14:57:21.032Z,34.65
2023-05-17T14:59:48.449Z,34.72
2023-05-17T15:02:15.362Z,34.86
2023-05-17T15:04:42.560Z,34.96
2023-05-17T15:07:09.786Z,35.15
2023-05-17T15:09:41.676Z,35.41
2023-05-17T15:12:11.253Z,35.37
2023-05-17T15:14:40.640Z,35.51
2023-05-17T15:17:07.629Z,35.66
2023-05-17T15:19:34.626Z,36.10
2023-05-17T15:22:02.217Z,35.94
2023-05-17T15:24:29.771Z,36.33
2023-05-17T15:26:56.939Z,36.73
2023-05-17T15:29:23.817Z,36.73
2023-05-17T15:31:50.798Z,36.82
2023-05-17T15:34:18.049Z,36.50
2023-05-17T15:36:45.012Z,36.46
2023-05-17T15:39:12.074Z,36.47
2023-05-17T15:41:39.977Z,35.98
2023-05-17T15:44:08.169Z,36.25
2023-05-17T15:46:35.067Z,36.37
2023-05-17T15:49:02.086Z,35.98
2023-05-17T15:51:29.049Z,35.56
2023-05-17T15:53:56.329Z,35.65
2023-05-17T15:56:23.425Z,35.83
2023-05-17T15:58:50.616Z,36.00
2023-05-17T16:01:17.595Z,36.04
2023-05-17T16:03:44.791Z,36.22
2023-05-17T16:06:12.036Z,36.47
2023-05-17T16:08:39.031Z,36.35
2023-05-17T16:11:07.316Z,36.60
2023-05-17T16:13:34.299Z,36.55
2023-05-17T16:16:01.175Z,36.66
2023-05-17T16:18:28.635Z,36.86
2023-05-17T16:21:00.081Z,37.08
2023-05-17T16:23:29.746Z,37.38
2023-05-17T16:25:56.680Z,37.57
2023-05-17T16:28:23.704Z,38.19
2023-05-17T16:30:51.227Z,39.04
2023-05-17T16:33:20.624Z,39.74
2023-05-17T16:35:49.004Z,40.48
2023-05-17T16:38:16.831Z,41.27
2023-05-17T16:40:43.967Z,41.82
2023-05-17T16:43:15.885Z,42.17
2023-05-17T16:45:44.980Z,42.55
2023-05-17T16:48:15.293Z,42.79
2023-05-17T16:57:48.240Z,44.00
2023-05-17T17:00:15.730Z,44.17
2023-05-17T17:02:43.068Z,44.45
2023-05-17T17:05:10.609Z,44.46
2023-05-17T17:07:37.513Z,44.75
2023-05-17T17:10:04.722Z,44.91
2023-05-17T17:12:31.886Z,45.23
2023-05-17T17:14:58.887Z,45.51
2023-05-17T17:17:26.692Z,45.54
2023-05-17T17:19:53.632Z,45.76
2023-05-17T17:22:20.578Z,46.12
2023-05-17T17:24:47.722Z,46.33
2023-05-17T17:27:14.621Z,46.71
2023-05-17T17:29:41.675Z,46.75
2023-05-17T17:32:08.630Z,46.79
2023-05-17T17:34:36.051Z,47.07
2023-05-17T17:37:03.087Z,47.38
2023-05-17T17:39:29.983Z,47.50
2023-05-17T17:41:56.983Z,47.51
2023-05-17T17:44:24.295Z,47.64
2023-05-17T17:46:51.450Z,47.86
2023-05-17T17:49:18.666Z,48.00
2023-05-17T17:51:45.639Z,48.22
2023-05-17T17:54:12.630Z,48.28
2023-05-17T17:56:39.533Z,48.21
2023-05-17T17:59:06.626Z,48.42
2023-05-17T18:01:35.223Z,48.41
2023-05-17T18:04:02.193Z,48.71
2023-05-17T18:06:29.313Z,48.73
2023-05-17T18:08:57.652Z,48.91
2023-05-17T18:11:24.535Z,48.86
2023-05-17T18:13:51.789Z,49.13
2023-05-17T18:16:18.867Z,49.25
2023-05-17T18:18:47.072Z,49.36
2023-05-17T18:21:14.786Z,49.40
2023-05-17T18:23:42.055Z,49.33
2023-05-17T18:26:09.024Z,49.80
2023-05-17T18:28:42.444Z,50.13
2023-05-17T18:31:10.383Z,50.21
2023-05-17T18:33:37.672Z,50.66
2023-05-17T18:36:04.982Z,51.04
2023-05-17T18:38:31.983Z,51.30
2023-05-17T18:40:58.952Z,51.73
2023-05-17T18:43:25.916Z,51.43
2023-05-17T18:45:52.910Z,51.42
2023-05-17T18:48:22.218Z,51.63
2023-05-17T18:50:49.097Z,51.71
2023-05-17T18:53:16.079Z,51.75
2023-05-17T18:55:43.097Z,51.86
2023-05-17T18:58:09.980Z,52.04
2023-05-17T19:00:36.924Z,52.23
2023-05-17T19:03:04.599Z,52.53
2023-05-17T19:05:31.614Z,52.76
2023-05-17T19:07:58.548Z,52.82
2023-05-17T19:10:25.471Z,52.95
2023-05-17T19:12:52.462Z,52.93
2023-05-17T19:15:19.561Z,53.04
2023-05-17T19:17:46.681Z,53.29
2023-05-17T19:20:13.750Z,53.46
2023-05-17T19:22:40.666Z,53.34
2023-05-17T19:25:07.975Z,53.51
2023-05-17T19:27:37.324Z,53.68
2023-05-17T19:30:05.096Z,53.80
2023-05-17T19:32:33.326Z,54.09
2023-05-17T19:35:01.306Z,54.39
2023-05-17T19:37:28.516Z,54.67
2023-05-17T19:39:55.725Z,55.21
2023-05-17T19:42:22.696Z,55.50
2023-05-17T19:44:49.570Z,55.81
2023-05-17T19:47:17.145Z,56.41
2023-05-17T19:49:46.410Z,56.95
2023-05-17T19:52:13.295Z,57.27
2023-05-17T19:54:40.185Z,58.13
2023-05-17T19:57:11.099Z,58.72
2023-05-17T19:59:39.485Z,59.11
2023-05-17T20:02:06.879Z,59.49
2023-05-17T20:04:33.903Z,59.61
2023-05-17T20:07:00.858Z,59.86
2023-05-17T20:09:30.412Z,60.28
2023-05-17T20:11:57.757Z,60.62
2023-05-17T20:14:24.681Z,61.00
2023-05-17T20:16:51.867Z,61.46
2023-05-17T20:19:18.961Z,61.89
2023-05-17T20:21:45.996Z,62.10
2023-05-17T20:24:12.926Z,62.30
2023-05-17T20:28:11.011Z,62.58
2023-05-17T20:30:38.018Z,62.92
2023-05-17T20:33:04.968Z,63.24
2023-05-17T20:35:32.046Z,63.51
2023-05-17T20:37:59.111Z,63.78
2023-05-17T20:40:26.431Z,64.14
2023-05-17T20:42:53.623Z,64.53
2023-05-17T20:45:21.777Z,64.83
2023-05-17T20:47:48.894Z,65.04
2023-05-17T20:50:17.463Z,65.09
2023-05-17T20:52:45.642Z,65.14
2023-05-17T20:55:12.542Z,65.23
2023-05-17T20:57:39.495Z,65.50
2023-05-17T21:00:09.362Z,65.61
2023-05-17T21:02:36.452Z,65.72
2023-05-17T21:05:03.468Z,65.86
2023-05-17T21:07:30.412Z,65.82
2023-05-17T21:09:57.502Z,65.93
2023-05-17T21:12:24.526Z,65.98
2023-05-17T21:15:03.601Z,65.97
2023-05-17T21:17:35.256Z,66.04
2023-05-17T21:20:02.263Z,66.07
2023-05-17T21:22:29.278Z,66.09
2023-05-17T21:24:56.191Z,66.20
2023-05-17T21:27:23.374Z,66.29
2023-05-17T21:29:50.358Z,66.41
2023-05-17T21:32:17.284Z,66.60
2023-05-17T21:34:45.135Z,66.63
2023-05-17T21:37:12.412Z,66.80
2023-05-17T21:39:39.304Z,66.96
2023-05-17T21:42:06.298Z,67.03
2023-05-17T21:44:33.156Z,67.21
2023-05-17T21:47:00.319Z,67.28
2023-05-17T21:49:28.674Z,67.54
2023-05-17T21:51:55.579Z,67.63
2023-05-17T21:54:24.300Z,67.63
2023-05-17T21:56:51.600Z,67.92
2023-05-17T21:59:18.792Z,67.91
2023-05-17T22:01:46.013Z,67.96
2023-05-17T22:04:13.309Z,68.03
2023-05-17T22:06:40.302Z,68.13
2023-05-17T22:09:07.297Z,68.26
2023-05-17T22:11:38.431Z,68.40
2023-05-17T22:14:08.267Z,68.43
2023-05-17T22:16:35.924Z,68.42
2023-05-17T22:19:04.005Z,68.27
2023-05-17T22:21:32.144Z,68.29
2023-05-17T22:23:59.349Z,68.25
2023-05-17T22:26:27.909Z,68.19
2023-05-17T22:28:55.928Z,68.22
2023-05-17T22:31:23.190Z,68.33
2023-05-17T22:33:52.260Z,68.23
2023-05-17T22:36:19.670Z,68.35
2023-05-17T22:38:46.773Z,68.46
2023-05-17T22:41:13.759Z,68.51
2023-05-17T22:43:40.684Z,68.92
2023-05-17T22:46:07.676Z,69.05
2023-05-17T22:48:37.530Z,69.29
2023-05-17T22:51:04.792Z,69.36
2023-05-17T22:53:32.073Z,69.52
2023-05-17T22:55:59.078Z,69.78
2023-05-17T22:58:26.037Z,69.93
2023-05-17T23:00:53.347Z,69.91
2023-05-17T23:03:20.708Z,70.10
2023-05-17T23:05:48.032Z,69.99
2023-05-17T23:08:17.927Z,70.21
2023-05-17T23:10:49.983Z,70.41
2023-05-17T23:13:18.009Z,70.46
2023-05-17T23:15:46.380Z,70.54
2023-05-17T23:18:13.327Z,70.77
2023-05-17T23:20:40.407Z,70.85
2023-05-17T23:23:08.539Z,71.05
2023-05-17T23:25:37.416Z,71.54
2023-05-17T23:28:04.760Z,71.58
2023-05-17T23:30:32.653Z,71.70
2023-05-17T23:33:00.341Z,71.88
2023-05-17T23:35:27.746Z,72.15
2023-05-17T23:37:54.994Z,72.21
2023-05-17T23:40:22.108Z,72.36
2023-05-17T23:42:49.041Z,72.47
2023-05-17T23:45:16.163Z,72.54
2023-05-17T23:47:43.262Z,72.60
2023-05-17T23:50:10.875Z,72.63
2023-05-17T23:52:41.249Z,72.72
2023-05-17T23:55:09.107Z,72.60
2023-05-17T23:57:36.100Z,72.46
